Date,TemperatureHighF,TemperatureAvgF,TemperatureLowF,DewpointHighF,DewpointAvgF,DewpointLowF,HumidityHigh,HumidityAvg,HumidityLow,PressureMaxIn,PressureMinIn,WindSpeedMaxMPH,WindSpeedAvgMPH,GustSpeedMaxMPH,PrecipitationSumIn
2013-1-1,19.2,3.6,-17.1,9.9,-7.8,-31.9,67,58,45,30.32,30.08,12,4,12,0.00
2013-1-2,23.5,17.4,12.4,16.5,9.0,2.6,75,69,62,30.17,29.99,17,5,17,0.00
2013-1-3,18.0,10.2,2.3,3.9,-0.8,-7.9,69,60,46,30.34,30.15,14,6,14,0.00
2013-1-4,32.4,17.5,5.7,14.9,5.7,-4.0,72,60,47,30.18,30.07,13,4,13,0.00
2013-1-5,27.5,13.7,3.9,10.0,2.5,-5.0,72,61,45,30.13,29.92,12,4,12,0.00
2013-1-6,24.3,13.7,6.1,10.8,2.8,-5.8,69,61,51,30.29,30.03,17,5,17,0.00
2013-1-7,42.1,27.0,18.5,25.9,16.3,9.4,75,64,52,30.03,29.94,22,6,22,0.00
2013-1-8,35.4,24.5,11.7,24.5,15.8,4.6,75,69,57,30.03,29.81,14,4,14,0.00
2013-1-9,31.8,29.8,28.0,23.8,21.9,19.2,75,72,69,30.05,29.99,16,6,16,0.00
2013-1-10,41.4,35.2,30.4,29.0,24.9,19.6,83,67,47,30.32,29.78,14,5,14,0.20
2013-1-11,38.8,35.7,33.6,35.0,30.8,28.9,86,82,80,29.77,29.45,14,5,14,0.04
2013-1-12,34.5,11.9,1.8,29.0,0.6,-10.4,80,60,47,30.15,29.47,12,0,14,0.00
2013-1-13,10.4,2.9,-1.3,-5.3,-10.1,-14.2,64,54,43,30.29,30.11,0,0,0,0.00
2013-1-14,18.7,7.1,0.7,2.1,-5.2,-9.8,66,57,36,30.46,30.29,0,0,0,0.00
2013-1-15,33.3,22.7,9.3,15.4,9.5,-1.3,67,57,42,30.32,29.89,21,6,21,0.00
2013-1-16,38.7,24.0,4.1,30.9,15.2,-8.2,80,69,56,30.29,29.73,18,6,20,0.02
2013-1-17,25.5,10.3,-1.7,7.7,-3.1,-14.5,65,54,41,30.44,30.28,9,4,10,0.00
2013-1-18,43.5,30.7,17.4,30.0,21.3,7.2,78,68,57,30.30,29.81,17,5,17,0.00
2013-1-19,40.6,22.6,0.1,30.2,11.6,-14.8,81,63,43,30.32,29.76,26,9,30,0.00
2013-1-20,11.5,1.9,-4.7,-5.8,-13.5,-19.6,55,47,41,30.46,30.32,16,7,16,0.00
2013-1-21,-2.0,-7.9,-12.3,-19.6,-24.5,-29.2,51,43,33,30.41,30.34,17,7,18,0.00
2013-1-22,6.3,-4.6,-13.9,-8.7,-19.6,-27.3,55,47,32,30.43,30.26,8,2,8,0.00
2013-1-23,16.0,5.7,-4.9,2.0,-10.1,-24.8,65,48,31,30.63,30.19,20,5,20,0.00
2013-1-24,13.8,3.4,-6.3,-0.5,-16.9,-25.6,55,37,32,30.68,30.19,17,5,17,0.00
2013-1-25,19.0,10.8,-1.1,7.5,-3.9,-14.5,61,51,42,30.35,30.02,30,8,30,0.00
2013-1-26,29.7,12.0,-5.1,7.6,-3.7,-16.6,58,49,31,30.37,30.12,14,3,14,0.00
2013-1-27,32.2,29.8,24.6,26.1,19.4,7.5,80,66,47,30.12,29.85,14,3,14,0.11
2013-1-28,36.9,32.2,29.8,28.6,26.6,24.7,83,80,72,29.94,29.68,9,2,9,0.25
2013-1-29,37.2,31.6,26.4,28.7,24.7,17.5,83,75,66,29.82,29.58,11,4,11,0.09
2013-1-30,26.4,15.4,3.4,17.7,4.2,-8.3,70,61,47,29.86,29.74,17,8,17,0.00
2013-1-31,3.2,-3.8,-10.8,-8.3,-18.7,-26.7,58,47,41,30.34,29.86,21,10,21,0.00
2013-2-1,9.9,-2.5,-16.8,-0.5,-18.0,-32.1,63,47,29,30.36,30.07,13,4,13,0.00
2013-2-2,14.9,6.4,-1.3,1.9,-6.5,-14.3,67,55,33,30.22,30.00,10,3,10,0.00
2013-2-3,18.0,10.6,3.4,2.9,-1.2,-8.3,68,58,47,30.15,29.99,14,4,14,0.00
2013-2-4,22.8,9.0,-4.9,7.5,-5.4,-15.4,70,53,26,30.12,29.78,14,3,14,0.00
2013-2-5,36.7,25.5,13.6,24.2,15.7,3.1,79,66,51,30.07,29.73,18,6,18,0.08
2013-2-6,37.8,17.8,-3.8,23.5,7.2,-14.9,73,63,51,30.14,29.93,6,3,6,0.05
2013-2-7,26.8,24.1,16.2,18.3,15.4,7.8,76,69,65,30.30,30.02,8,4,8,0.00
2013-2-8,32.7,24.4,18.9,16.3,13.9,8.8,71,64,49,30.40,30.23,14,4,14,0.00
2013-2-9,33.6,28.4,24.6,24.8,20.5,16.0,77,72,68,30.24,29.94,19,7,20,0.00
2013-2-10,33.8,30.8,27.9,28.1,25.0,20.2,82,79,72,29.95,29.34,20,2,20,0.01
2013-2-11,27.9,22.5,13.8,21.0,13.0,3.8,75,66,59,30.11,29.45,0,0,0,0.00
2013-2-12,39.0,22.8,13.3,24.3,12.1,4.1,69,63,50,30.11,29.87,13,2,13,0.21
2013-2-13,41.2,27.0,10.0,28.1,17.9,0.9,80,69,52,29.87,29.63,11,4,11,0.12
2013-2-14,32.5,24.0,4.6,26.8,13.0,-9.2,81,63,43,30.26,29.65,13,3,13,0.04
2013-2-15,19.2,6.9,-1.3,-0.2,-6.6,-12.4,63,54,41,30.38,30.26,11,4,11,0.00
2013-2-16,25.7,11.4,-1.7,6.0,-1.3,-12.4,65,56,40,30.32,30.12,7,3,7,0.01
2013-2-17,36.9,23.5,7.0,21.6,11.9,-3.7,69,61,50,30.13,29.64,19,6,19,0.00
2013-2-18,33.3,20.0,2.1,25.9,9.8,-8.1,76,64,53,29.92,29.58,24,9,24,0.00
2013-2-19,4.1,-2.4,-12.6,-7.9,-17.7,-27.3,61,47,37,30.43,29.92,20,9,20,0.00
2013-2-20,16.9,-0.3,-16.2,-4.7,-16.9,-29.5,57,45,29,30.49,30.41,8,2,8,0.00
2013-2-21,23.7,11.3,-7.6,7.3,-2.4,-18.9,62,53,43,30.44,30.09,14,5,14,0.00
2013-2-22,34.5,22.0,15.3,19.0,12.3,7.0,75,66,51,30.09,29.93,14,4,14,0.12
2013-2-23,29.3,14.4,-3.3,13.3,3.4,-14.6,70,61,45,30.01,29.92,9,3,9,0.00
2013-2-24,39.7,16.0,-7.1,18.2,1.6,-18.1,67,53,34,30.15,30.00,5,1,6,0.00
2013-2-25,39.4,24.1,7.5,22.3,12.4,-1.7,72,61,46,30.16,30.07,8,2,8,0.00
2013-2-26,37.9,21.8,7.5,24.5,11.9,-1.9,73,65,53,30.11,29.94,9,3,9,0.00
2013-2-27,44.6,28.4,18.3,24.6,16.7,7.9,72,62,45,30.10,29.93,17,4,17,0.00
2013-2-28,32.7,26.7,17.4,19.5,15.5,7.6,72,62,54,30.26,30.10,8,3,8,0.00
2013-3-1,35.4,21.6,5.9,15.2,8.8,-3.9,68,58,42,30.40,30.25,10,3,10,0.00
2013-3-2,35.8,16.2,-2.7,13.4,2.3,-13.7,67,54,36,30.39,30.20,7,2,7,0.00
2013-3-3,38.1,26.8,15.3,15.6,8.3,2.3,62,46,25,30.20,30.00,12,4,12,0.00
2013-3-4,28.4,24.3,22.1,17.3,15.6,8.0,75,69,46,30.06,29.95,17,6,17,0.00
2013-3-5,35.8,25.2,11.8,21.4,16.4,4.0,75,69,52,30.35,30.00,9,3,9,0.21
2013-3-6,31.6,21.4,6.8,16.2,10.5,-2.7,75,63,49,30.46,30.35,8,2,8,0.02
2013-3-7,36.9,16.7,-2.7,16.2,2.8,-13.4,67,54,41,30.41,30.31,8,2,8,0.00
2013-3-8,45.7,28.8,12.7,26.2,17.7,4.8,72,64,45,30.33,30.12,10,4,10,0.00
2013-3-9,38.7,34.9,32.7,32.7,28.7,25.7,80,78,73,30.10,29.75,8,3,8,0.65
2013-3-10,33.4,31.5,27.0,27.3,23.2,16.8,80,71,65,30.01,29.84,13,7,13,0.02
2013-3-11,32.2,25.7,18.3,18.3,14.8,7.8,68,63,55,29.94,29.83,11,5,11,0.00
2013-3-12,29.5,23.2,19.0,17.1,10.7,7.3,69,58,50,30.22,29.89,15,8,15,0.00
2013-3-13,31.1,20.7,4.6,15.8,8.2,-4.6,67,58,48,30.44,30.22,10,4,10,0.00
2013-3-14,49.3,31.8,21.2,26.2,19.2,13.0,75,61,37,30.28,30.07,12,3,12,0.06
2013-3-15,37.0,30.9,21.7,27.7,23.4,14.2,78,74,67,30.06,29.85,11,4,11,0.05
2013-3-16,28.4,20.7,7.9,18.4,7.8,-5.6,75,58,38,30.30,29.95,11,5,11,0.01
2013-3-17,34.0,18.2,4.3,19.2,3.2,-8.1,68,52,40,30.31,29.87,16,5,16,0.00
2013-3-18,30.0,20.7,8.6,24.6,10.7,-2.7,80,65,49,29.94,29.67,29,12,29,0.00
2013-3-19,21.9,10.8,3.2,0.4,-5.3,-9.0,60,48,31,30.28,29.94,21,10,21,0.00
2013-3-20,21.4,10.6,1.6,1.3,-5.9,-10.7,57,47,33,30.31,30.19,22,8,22,0.00
2013-3-21,34.7,12.2,-6.9,4.9,-6.1,-17.9,61,45,25,30.19,30.10,8,2,8,0.00
2013-3-22,37.2,18.3,-1.7,12.6,2.1,-13.6,66,50,25,30.16,30.10,8,2,8,0.00
2013-3-23,39.9,22.4,6.8,18.4,9.3,-2.7,68,58,36,30.22,30.13,8,3,8,0.00
2013-3-24,38.3,28.5,21.0,21.8,17.0,12.0,72,62,44,30.17,30.03,12,4,14,0.00
2013-3-25,43.5,29.8,20.3,20.6,15.5,10.8,72,56,35,30.30,30.10,12,4,12,0.00
2013-3-26,41.0,23.9,10.9,22.3,11.4,1.9,69,59,45,30.37,30.30,10,4,10,0.00
2013-3-27,50.9,33.5,9.5,23.9,16.1,0.2,75,51,28,30.39,30.34,8,2,9,0.00
2013-3-28,51.8,33.4,16.9,30.4,20.8,7.6,74,61,42,30.38,30.30,8,2,8,0.00
2013-3-29,57.7,42.2,28.9,40.5,30.7,21.7,75,64,47,30.32,30.10,12,3,12,0.00
2013-3-30,45.1,39.5,31.5,35.8,31.4,25.1,78,73,63,30.10,29.95,14,6,14,0.01
2013-3-31,38.7,32.1,21.4,26.1,19.6,8.2,79,61,39,30.18,29.89,22,9,22,0.00
2013-4-1,36.0,25.3,16.3,15.2,9.4,3.5,61,51,39,30.34,30.18,15,6,15,0.00
2013-4-2,36.5,29.9,17.2,16.7,12.3,7.4,70,49,37,30.39,30.31,10,5,10,0.00
2013-4-3,36.3,36.3,36.3,12.6,12.6,12.6,37,37,37,30.39,30.39,7,7,9,0.00
2013-4-4,36.3,36.3,36.3,12.6,12.6,12.6,37,37,37,30.39,30.39,7,7,9,0.00
2013-4-5,36.3,36.3,36.3,12.6,12.6,12.6,37,37,37,30.39,30.39,7,7,9,0.00
2013-4-6,36.3,36.3,36.3,12.6,12.6,12.6,37,37,37,30.39,30.39,7,7,9,0.00
2013-4-7,36.3,36.3,36.3,12.6,12.6,12.6,37,37,37,30.39,30.39,7,7,9,0.00
2013-4-8,36.3,36.3,36.3,12.6,12.6,12.6,37,37,37,30.39,30.39,7,7,9,0.00
2013-4-9,36.3,36.3,36.3,12.6,12.6,12.6,37,37,37,30.39,30.39,7,7,9,0.00
2013-4-10,36.3,36.3,36.3,12.6,12.6,12.6,37,37,37,30.39,30.39,7,7,9,0.00
2013-4-11,36.3,36.3,36.3,12.6,12.6,12.6,37,37,37,30.39,30.39,7,7,9,0.00
2013-4-12,41.4,33.5,21.6,25.5,17.8,12.6,77,55,37,30.39,29.92,8,6,9,4.85
2013-4-13,44.2,31.9,25.0,25.1,20.9,15.4,77,64,45,30.04,29.94,11,4,11,0.01
2013-4-14,36.1,32.1,29.1,29.1,24.6,20.6,76,73,67,30.01,29.54,21,10,21,0.35
2013-4-15,41.9,35.1,30.9,29.3,24.9,20.9,72,66,59,30.10,29.62,27,10,27,0.01
2013-4-16,50.2,36.4,30.2,29.0,24.5,20.8,72,62,43,30.40,30.09,14,4,14,0.00
2013-4-17,41.2,35.7,32.5,31.2,26.6,23.6,77,69,63,30.40,30.01,13,4,13,0.24
2013-4-18,33.4,31.7,29.7,26.7,25.2,23.9,79,77,75,30.03,29.67,11,1,12,0.04
2013-4-19,42.6,33.6,26.6,25.8,21.6,13.0,79,62,43,30.11,29.66,16,4,16,0.37
2013-4-20,47.5,31.7,13.8,22.6,12.9,6.1,74,49,21,30.38,30.11,10,3,10,0.00
2013-4-21,51.8,41.0,32.4,40.6,32.0,22.8,78,71,57,30.38,30.10,22,5,22,0.18
2013-4-22,42.8,35.0,30.2,31.1,26.8,23.9,77,72,61,30.30,30.20,14,3,14,0.14
2013-4-23,44.1,33.9,22.8,25.5,21.2,15.4,78,61,36,30.29,30.18,14,3,14,0.24
2013-4-24,50.9,36.8,26.2,32.8,24.3,18.3,76,62,34,30.18,30.02,25,7,25,0.02
2013-4-25,56.1,40.4,28.0,33.2,25.8,18.9,73,58,31,30.31,30.12,15,4,15,0.00
2013-4-26,76.5,57.0,43.3,47.0,38.2,31.7,74,52,25,30.24,30.04,17,5,17,0.01
2013-4-27,79.2,58.8,33.6,46.2,36.1,26.3,88,50,16,30.25,30.00,14,3,15,0.00
2013-4-28,84.6,64.7,49.1,49.9,45.9,41.9,76,54,26,30.00,29.75,24,8,24,0.01
2013-4-29,80.1,60.1,44.6,51.7,44.2,37.5,82,59,31,29.94,29.64,14,3,14,0.00
2013-4-30,69.8,62.9,51.8,55.3,42.9,22.3,72,51,17,30.10,29.52,19,6,19,0.00
2013-5-1,53.2,39.0,32.0,37.2,31.2,27.4,84,74,54,30.56,30.09,13,3,13,0.52
2013-5-2,51.3,39.7,32.9,31.4,26.8,23.0,72,60,43,30.64,30.51,16,6,16,0.00
2013-5-3,42.4,34.7,30.0,31.0,26.0,22.0,79,70,60,30.51,30.23,17,6,17,0.06
2013-5-4,43.7,37.8,32.4,37.6,32.4,26.6,84,81,77,30.27,30.19,14,5,14,0.04
2013-5-5,70.7,49.8,37.4,49.8,40.4,32.9,85,71,46,30.27,30.18,10,3,10,0.00
2013-5-6,80.4,59.3,40.6,51.0,44.4,36.8,86,62,29,30.22,30.12,11,2,11,0.00
2013-5-7,81.1,62.5,44.1,52.5,45.5,40.3,88,58,25,30.19,30.06,17,3,17,0.00
2013-5-8,74.1,63.6,54.7,54.4,49.8,44.5,83,62,44,30.11,30.06,12,3,12,0.01
2013-5-9,68.4,54.6,43.5,54.7,46.1,30.5,83,73,59,30.21,30.07,17,6,17,0.04
2013-5-10,73.8,54.0,34.7,38.1,26.8,14.4,70,42,11,30.22,30.00,11,4,11,0.00
2013-5-11,58.6,48.4,35.2,41.7,25.8,14.2,68,44,21,30.29,30.01,24,7,24,0.00
2013-5-12,65.3,45.4,25.3,29.1,20.7,14.4,76,44,16,30.34,30.19,13,3,17,0.00
2013-5-13,85.8,59.0,34.3,51.4,35.2,22.2,71,44,25,30.21,29.77,24,5,24,0.00
2013-5-14,100.9,74.6,48.0,56.9,43.1,22.3,76,39,11,29.84,29.59,19,6,22,0.00
2013-5-15,82.6,64.6,44.1,49.3,45.3,37.0,77,51,30,30.06,29.84,15,4,15,0.01
2013-5-16,88.2,70.0,47.1,52.5,44.0,31.4,78,43,21,30.03,29.94,14,4,14,0.00
2013-5-17,68.2,58.5,55.4,53.7,49.7,38.0,86,73,34,30.08,30.00,12,6,12,0.40
2013-5-18,86.7,70.3,57.2,65.4,59.4,53.3,88,70,47,30.09,29.88,17,4,17,1.46
2013-5-19,79.0,68.5,62.2,64.1,60.3,57.6,87,76,57,29.89,29.66,22,4,22,0.91
2013-5-20,73.8,64.7,57.7,59.3,55.7,53.6,87,73,53,29.69,29.62,19,6,19,0.05
2013-5-21,68.2,57.8,49.3,54.9,51.3,45.6,88,79,61,29.82,29.61,11,3,11,0.08
2013-5-22,53.4,48.7,44.8,47.7,43.8,41.2,88,83,67,30.10,29.81,14,5,14,0.32
2013-5-23,70.7,55.5,42.4,42.1,38.8,34.6,82,57,27,30.38,30.10,14,4,14,0.00
2013-5-24,71.1,55.0,35.8,48.5,40.2,29.2,80,60,32,30.46,30.25,12,3,12,0.12
2013-5-25,58.1,54.4,52.5,48.6,45.8,43.4,82,73,67,30.34,30.28,9,3,9,0.02
2013-5-26,54.9,51.6,48.6,47.1,43.9,40.6,81,75,72,30.30,30.11,10,4,10,0.01
2013-5-27,62.1,56.1,52.9,51.5,49.1,46.4,84,77,68,30.13,29.94,10,6,10,0.02
2013-5-28,66.4,58.6,52.5,54.6,51.6,48.1,86,78,67,29.93,29.83,7,2,7,0.02
2013-5-29,58.1,53.1,52.5,52.3,48.5,48.1,85,84,81,29.91,29.87,2,1,2,0.00
2013-5-30,73.6,68.4,63.5,60.9,58.8,55.3,83,72,60,29.91,29.77,23,7,23,0.27
2013-5-31,74.5,66.3,58.1,57.9,52.3,49.3,77,61,45,29.83,29.77,27,8,27,0.00
2013-6-1,76.1,59.8,50.7,57.3,49.6,40.7,82,69,49,30.23,29.82,11,3,11,0.01
2013-6-2,73.0,57.6,45.1,44.8,41.5,37.4,79,57,31,30.35,30.23,11,2,11,0.00
2013-6-3,76.1,59.8,41.7,51.4,43.1,37.8,87,57,30,30.32,30.15,8,2,11,0.01
2013-6-4,63.1,58.7,54.3,52.5,48.1,44.9,77,68,56,30.31,30.22,17,4,17,0.04
2013-6-5,55.6,54.9,52.7,49.0,48.2,45.9,82,78,74,30.30,30.24,6,2,7,0.00
2013-6-6,55.6,55.6,55.6,48.8,48.8,48.8,78,78,78,30.25,30.25,2,2,3,0.00
2013-6-7,55.6,55.6,55.6,48.8,48.8,48.8,78,78,78,30.25,30.25,2,2,3,0.00
2013-6-8,55.6,55.6,55.6,48.8,48.8,48.8,78,78,78,30.25,30.25,2,2,3,0.00
2013-6-9,63.3,55.6,32.0,56.3,48.8,20.8,80,78,63,30.25,29.92,4,2,4,0.60
2013-6-10,78.3,66.7,58.5,59.6,56.5,53.0,85,70,53,29.98,29.91,10,2,10,0.00
2013-6-11,87.3,69.4,55.9,66.0,59.3,51.3,86,72,47,30.01,29.91,8,2,8,0.00
2013-6-12,70.0,64.6,58.6,62.7,58.6,54.5,90,81,68,29.99,29.88,12,3,12,2.53
2013-6-13,88.5,68.7,54.5,59.1,54.2,46.4,82,62,34,30.20,30.06,5,1,5,0.00
2013-6-14,81.9,69.7,56.1,60.9,56.2,50.8,85,64,47,30.18,29.97,18,4,18,0.00
2013-6-15,84.7,70.7,61.0,64.8,60.2,54.9,84,70,48,30.04,29.96,21,2,21,0.46
2013-6-16,91.8,71.7,54.1,58.5,53.6,47.5,87,58,24,30.05,29.97,12,2,12,0.00
2013-6-17,88.2,72.2,57.2,59.2,54.8,50.4,79,57,35,30.10,29.99,13,3,13,0.00
2013-6-18,83.7,68.4,55.2,60.2,54.6,49.0,82,63,41,30.19,30.10,7,2,8,0.07
2013-6-19,89.4,73.4,56.8,62.9,57.1,51.8,84,59,35,30.15,30.03,11,2,11,0.00
2013-6-20,91.2,80.1,69.3,64.6,61.2,57.3,67,53,41,30.09,29.96,16,4,16,0.00
2013-6-21,86.7,74.0,63.5,68.2,62.2,57.9,85,68,52,30.12,29.88,22,4,22,1.36
2013-6-22,88.2,72.4,63.1,68.5,63.0,58.1,86,74,51,30.09,29.93,9,2,9,0.70
2013-6-23,84.0,73.8,66.2,65.8,63.2,60.5,86,71,51,30.00,29.80,20,5,20,0.93
2013-6-24,75.4,67.0,63.0,63.1,60.9,58.4,86,81,65,30.01,29.90,9,1,9,0.00
2013-6-25,90.3,75.4,64.4,70.1,63.4,57.9,83,67,50,29.93,29.82,10,3,10,0.00
2013-6-26,90.3,76.9,70.3,68.1,64.2,61.4,84,66,43,29.95,29.77,10,2,10,0.00
2013-6-27,90.0,78.5,69.3,65.0,60.7,56.3,79,56,34,29.98,29.92,16,3,21,0.00
2013-6-28,82.9,72.9,64.8,61.7,57.5,54.9,71,59,46,29.96,29.90,14,4,14,0.00
2013-6-29,83.1,69.8,61.5,60.5,56.6,6.5,83,64,43,30.10,29.88,17,3,17,0.18
2013-6-30,86.5,70.3,55.0,58.0,52.9,48.3,79,57,33,30.23,30.10,9,2,14,0.00
2013-7-1,90.3,74.2,59.7,62.3,56.3,51.4,78,57,29,30.29,30.22,7,1,7,0.00
2013-7-2,88.2,72.3,59.2,58.4,54.0,49.0,78,56,32,30.26,30.19,8,1,8,0.00
2013-7-3,90.3,78.7,63.3,57.8,54.0,49.0,68,45,25,30.14,30.05,8,2,8,0.00
2013-7-4,90.5,76.5,62.6,62.3,56.2,51.7,73,51,31,30.06,29.87,17,5,17,0.00
2013-7-5,90.5,78.3,68.4,64.9,59.4,53.8,63,53,41,30.00,29.90,18,7,18,0.00
2013-7-6,93.0,80.3,72.1,68.6,62.1,57.7,61,54,43,29.98,29.90,15,5,16,0.00
2013-7-7,97.2,80.3,68.5,71.2,65.5,61.7,87,62,42,30.01,29.93,12,3,13,0.59
2013-7-8,96.1,76.7,66.7,71.7,66.7,63.1,89,73,43,30.11,30.00,5,1,8,0.00
2013-7-9,87.4,76.7,66.9,68.8,65.9,60.6,87,70,53,30.06,29.85,21,4,21,0.34
2013-7-10,88.3,72.0,59.2,62.1,57.7,53.2,85,63,36,30.18,30.06,9,2,9,0.00
2013-7-11,87.6,73.3,57.0,65.7,57.8,53.7,89,62,37,30.21,30.07,15,3,15,0.00
2013-7-12,90.7,78.1,66.9,64.5,59.6,54.6,66,54,41,30.10,29.99,20,8,21,0.00
2013-7-13,77.5,71.3,64.6,66.9,61.0,56.9,84,70,56,30.17,30.00,21,5,21,0.15
2013-7-14,89.1,75.3,67.8,67.3,62.4,57.1,83,65,46,30.28,30.13,12,4,14,0.00
2013-7-15,91.9,78.2,66.7,67.6,64.0,59.7,81,63,43,30.33,30.25,14,3,14,0.00
2013-7-16,93.0,81.1,71.8,70.3,67.7,65.3,81,65,45,30.32,30.26,14,4,14,0.00
2013-7-17,96.1,82.7,69.1,71.2,67.7,63.0,84,62,43,30.35,30.22,11,3,11,0.00
2013-7-18,94.5,83.7,72.1,69.9,67.8,65.6,80,60,44,30.21,29.89,20,6,21,0.00
2013-7-19,89.1,79.2,65.8,67.8,63.6,59.0,82,61,40,30.02,29.85,16,3,16,0.04
2013-7-20,88.5,72.5,61.0,63.9,59.9,55.9,86,66,43,30.06,29.99,7,1,7,0.00
2013-7-21,89.4,74.0,62.8,67.7,60.6,52.5,85,64,46,30.04,29.89,12,2,12,0.00
2013-7-22,89.4,74.8,63.3,69.8,62.1,53.2,85,66,44,29.98,29.80,13,4,13,0.00
2013-7-23,85.5,68.8,55.0,58.3,54.4,50.6,87,63,36,30.12,29.97,8,2,9,0.00
2013-7-24,87.8,68.6,55.0,59.1,55.2,50.9,87,65,36,30.18,30.08,10,2,10,0.00
2013-7-25,88.5,72.5,62.1,67.5,59.7,53.3,79,65,39,30.12,30.03,11,3,11,0.15
2013-7-26,75.0,63.4,50.5,61.0,53.1,45.1,88,70,46,30.20,30.02,12,3,12,0.04
2013-7-27,70.9,58.1,44.6,50.1,46.2,41.3,90,67,45,30.20,30.05,12,2,12,0.00
2013-7-28,82.6,61.2,45.0,55.2,48.0,40.6,87,65,34,30.18,30.08,11,2,11,0.00
2013-7-29,80.8,65.4,47.8,57.7,52.8,45.1,90,67,41,30.22,30.16,10,2,10,0.01
2013-7-30,75.4,66.5,59.7,62.0,58.3,53.9,86,75,63,30.20,30.15,5,1,5,0.09
2013-7-31,84.0,66.8,55.9,65.0,57.7,51.7,91,75,43,30.20,30.11,12,2,12,0.12
2013-8-1,88.3,68.3,51.8,62.7,55.1,47.6,89,66,36,30.16,29.98,9,2,9,0.00
2013-8-2,85.8,67.2,53.6,61.8,54.0,49.4,89,66,34,30.16,29.97,7,1,7,0.00
2013-8-3,88.0,66.1,49.6,61.8,52.1,46.8,90,65,29,30.31,30.16,10,1,10,0.00
2013-8-4,80.8,62.7,48.0,59.3,52.7,44.5,89,72,45,30.33,30.09,7,1,7,0.00
2013-8-5,88.9,69.4,58.6,66.9,60.4,52.2,91,75,46,30.14,29.91,10,2,11,0.31
2013-8-6,87.4,69.3,54.3,65.7,58.9,51.3,91,72,47,29.97,29.81,14,3,14,0.00
2013-8-7,84.7,67.6,55.4,57.7,54.6,50.5,90,67,36,30.14,29.91,8,2,8,0.00
2013-8-8,77.2,61.6,52.2,59.8,54.1,48.3,88,78,54,30.17,30.09,8,1,11,0.12
2013-8-9,81.7,66.1,53.1,61.5,53.9,50.4,92,68,37,30.24,30.11,11,2,11,0.00
2013-8-10,84.0,66.5,52.3,59.2,54.6,48.9,90,68,41,30.30,30.18,6,1,8,0.00
2013-8-11,89.1,70.6,62.6,64.6,59.7,54.6,87,70,43,30.19,30.10,6,1,6,0.00
2013-8-12,85.3,69.9,55.4,63.1,56.8,52.5,90,67,38,30.17,30.12,17,1,17,0.00
2013-8-13,85.1,65.7,51.8,59.3,51.0,47.0,89,64,31,30.30,30.17,9,1,9,0.00
2013-8-14,80.1,64.1,48.7,62.2,50.1,45.6,89,64,34,30.31,30.21,10,2,11,0.00
2013-8-15,83.1,65.7,53.2,59.7,52.7,46.9,86,66,37,30.24,30.18,9,2,10,0.00
2013-8-16,82.2,65.5,50.7,58.6,53.1,47.6,90,68,40,30.31,30.23,13,2,13,0.00
2013-8-17,83.8,68.0,53.2,59.6,54.1,49.2,88,64,42,30.30,30.21,16,4,16,0.00
2013-8-18,83.1,69.8,55.6,59.6,54.9,49.7,83,61,41,30.24,30.11,21,4,21,0.00
2013-8-19,88.2,74.9,63.3,68.1,61.6,54.6,77,64,49,30.15,29.99,14,5,14,0.00
2013-8-20,89.6,78.3,68.7,70.2,66.1,61.5,81,67,52,30.02,29.96,14,4,14,0.00
2013-8-21,91.2,76.8,68.9,72.6,68.2,62.8,87,75,54,30.10,29.94,11,3,11,0.24
2013-8-22,93.9,75.7,60.3,65.8,58.1,52.7,86,57,33,30.22,30.10,11,2,11,0.00
2013-8-23,88.5,72.2,54.7,67.5,60.9,50.7,88,70,50,30.23,30.13,11,3,11,0.00
2013-8-24,89.4,79.0,70.7,69.4,66.4,63.0,79,66,50,30.15,30.02,24,8,24,0.00
2013-8-25,95.9,83.6,74.1,73.4,69.5,66.5,78,64,47,30.10,30.04,18,7,18,0.00
2013-8-26,96.1,83.8,72.7,74.3,70.9,67.3,86,67,48,30.09,29.94,14,4,14,0.00
2013-8-27,101.3,84.3,72.1,76.5,71.2,66.7,84,67,44,30.03,29.91,9,2,9,0.00
2013-8-28,96.8,79.7,66.2,73.3,69.1,62.9,90,72,46,30.11,30.02,8,1,8,0.00
2013-8-29,94.1,82.1,73.0,72.5,69.1,65.4,89,67,44,30.10,29.96,14,4,14,0.00
2013-8-30,91.2,76.6,63.9,69.2,64.8,59.6,87,69,43,30.04,29.95,11,2,11,0.00
2013-8-31,91.2,72.8,58.5,67.3,62.3,55.5,91,72,43,30.01,29.85,10,2,10,0.07
2013-9-1,76.8,66.8,55.9,62.4,58.0,51.8,90,75,54,30.11,29.88,12,2,12,0.01
2013-9-2,80.2,58.2,46.8,55.8,49.3,44.4,93,75,42,30.21,30.10,6,1,8,0.00
2013-9-3,84.7,61.2,43.0,62.1,51.8,40.5,93,74,43,30.19,30.11,8,2,8,0.00
2013-9-4,94.6,72.8,55.0,70.1,61.2,52.0,90,70,44,30.24,30.12,6,1,6,0.00
2013-9-5,94.6,73.8,58.5,69.4,61.3,53.5,85,67,44,30.30,30.19,8,2,8,0.00
2013-9-6,92.8,78.9,69.4,68.9,65.6,63.5,87,66,43,30.19,29.96,17,5,17,0.08
2013-9-7,99.0,80.3,65.8,71.2,66.4,61.9,88,65,37,30.09,29.96,10,2,10,0.00
2013-9-8,83.3,71.0,63.7,66.3,61.8,58.1,83,73,57,30.13,29.97,10,3,10,0.00
2013-9-9,96.8,77.9,66.6,70.3,65.9,61.9,88,69,41,29.98,29.75,19,5,19,0.00
2013-9-10,83.8,71.7,63.1,64.8,62.4,57.9,89,74,50,30.10,29.90,11,2,11,0.02
2013-9-11,92.3,71.8,57.4,61.7,55.9,48.4,90,62,25,30.19,30.10,11,2,11,0.00
2013-9-12,82.6,62.7,47.5,55.3,47.5,43.0,89,62,26,30.33,30.19,12,2,12,0.00
2013-9-13,82.8,57.7,41.0,51.3,43.0,37.7,90,64,24,30.37,30.18,8,1,8,0.00
2013-9-14,72.9,58.0,46.9,53.8,47.4,40.8,92,70,42,30.19,29.96,14,4,17,0.43
2013-9-15,74.7,58.5,46.4,55.2,51.6,42.7,92,79,48,30.41,29.97,11,2,11,0.30
2013-9-16,76.1,53.4,37.8,52.5,44.3,35.7,93,74,43,30.49,30.33,9,2,9,0.00
2013-9-17,66.6,56.0,47.8,56.1,49.3,43.2,89,79,61,30.34,30.03,18,4,18,0.01
2013-9-18,86.5,70.2,59.4,68.9,63.3,56.1,93,80,55,30.03,29.79,12,4,12,0.05
2013-9-19,81.7,69.8,60.3,66.4,61.7,50.5,90,76,54,29.95,29.75,18,3,18,0.27
2013-9-20,67.3,56.7,45.5,52.2,48.0,40.6,85,73,52,30.06,29.94,16,4,16,0.00
2013-9-21,78.8,53.9,40.3,52.0,43.2,37.6,90,71,34,30.11,30.00,9,1,9,0.00
2013-9-22,82.4,61.3,43.0,56.2,48.7,39.9,91,67,41,30.04,29.91,17,4,17,0.00
2013-9-23,79.5,64.0,53.1,53.9,49.7,45.5,77,61,37,30.03,29.94,19,5,19,0.00
2013-9-24,85.5,61.1,47.3,58.9,50.3,43.6,88,70,38,30.06,30.01,9,2,9,0.00
2013-9-25,81.0,61.5,46.0,55.4,49.6,43.8,92,69,37,30.06,29.94,16,2,16,0.00
2013-9-26,86.4,69.1,53.2,61.4,54.6,47.9,82,61,43,29.99,29.89,22,5,22,0.00
2013-9-27,86.5,74.2,66.9,62.7,59.0,56.6,76,60,44,29.99,29.87,22,7,22,0.02
2013-9-28,72.9,60.3,45.1,61.3,51.1,40.2,89,72,52,30.05,29.74,18,6,18,0.22
2013-9-29,83.7,61.2,42.3,48.4,42.5,37.7,84,56,22,30.06,29.88,17,5,17,0.00
2013-9-30,85.1,68.0,56.8,53.5,48.7,44.4,67,51,31,29.89,29.69,21,8,24,0.00
2013-10-1,81.9,65.1,43.7,51.5,41.5,23.4,76,48,12,30.10,29.69,16,4,16,0.00
2013-10-2,82.6,59.3,39.4,55.1,41.9,34.8,92,61,20,30.13,29.91,19,3,19,0.89
2013-10-3,61.9,58.0,55.2,57.6,54.6,52.2,94,88,78,30.03,29.92,9,3,9,0.02
2013-10-4,58.1,55.8,53.6,54.8,52.2,49.8,92,88,80,30.05,29.86,14,5,14,0.26
2013-10-5,59.7,50.8,39.2,56.6,43.8,34.8,91,77,57,29.95,29.84,14,3,14,0.01
2013-10-6,54.9,44.0,37.8,48.6,40.1,34.8,90,86,75,29.85,29.79,8,1,8,0.04
2013-10-7,82.8,54.6,39.2,47.3,40.6,35.9,91,65,25,30.06,29.94,6,2,6,0.01
2013-10-8,79.9,65.7,49.5,47.0,44.9,40.3,74,49,28,30.05,29.90,17,7,17,0.00
2013-10-9,81.7,64.2,54.9,53.3,47.7,45.2,72,57,30,30.12,30.02,17,5,17,0.00
2013-10-10,82.8,64.7,52.3,55.8,48.5,43.2,72,57,34,30.13,29.94,18,4,18,0.00
2013-10-11,73.4,64.7,53.4,58.2,52.2,44.8,83,65,51,29.95,29.70,30,8,30,0.25
2013-10-12,62.8,49.7,37.6,45.0,38.5,31.5,81,67,33,30.29,29.84,27,6,27,0.00
2013-10-13,73.0,46.8,30.4,41.9,32.4,24.7,88,63,20,30.51,30.30,7,1,10,0.00
2013-10-14,55.2,46.2,37.4,45.5,38.0,31.7,91,74,52,30.47,29.97,15,4,15,0.77
2013-10-15,52.9,49.0,44.4,50.0,45.3,41.3,91,87,82,29.97,29.74,15,4,15,0.18
2013-10-16,61.2,45.7,33.4,41.9,37.0,28.1,89,74,35,30.06,29.95,13,2,13,0.01
2013-10-17,61.7,44.4,37.0,43.0,36.7,31.6,86,75,44,29.98,29.88,11,3,11,0.05
2013-10-18,57.2,43.5,33.6,36.8,33.2,26.6,87,69,35,30.08,29.94,13,3,13,0.04
2013-10-19,51.6,37.6,27.1,39.6,29.3,20.3,83,73,47,29.94,29.80,15,4,15,0.01
2013-10-20,48.9,37.2,27.3,40.5,30.3,20.8,82,76,64,29.99,29.69,14,3,14,0.04
2013-10-21,45.0,33.0,23.2,26.3,21.0,16.5,77,62,43,30.06,30.00,17,4,18,0.00
2013-10-22,46.0,32.4,20.7,31.8,23.6,14.9,80,70,54,30.12,30.04,8,2,8,0.00
2013-10-23,43.0,33.6,26.4,27.1,22.6,18.0,80,64,43,30.19,30.08,11,2,11,0.00
2013-10-24,50.5,34.7,24.3,31.6,23.8,16.1,78,65,46,30.39,30.19,11,2,11,0.00
2013-10-25,62.2,41.0,21.9,40.9,29.4,15.9,78,65,44,30.40,29.89,28,7,28,0.00
2013-10-26,54.1,40.9,26.2,38.7,28.3,19.0,76,62,40,30.21,29.92,14,4,14,0.00
2013-10-27,69.6,42.0,27.1,36.5,27.9,19.3,79,60,24,30.20,29.90,14,5,16,0.00
2013-10-28,50.2,37.2,28.0,28.3,23.7,17.1,78,59,35,30.48,30.21,14,4,14,0.00
2013-10-29,44.1,37.3,29.1,34.3,28.2,19.7,86,69,63,30.46,30.14,11,4,11,0.00
2013-10-30,50.7,45.0,38.3,47.4,42.2,34.6,93,90,87,30.14,29.77,12,2,12,0.13
2013-10-31,46.8,39.8,37.4,44.7,36.5,34.5,93,88,82,29.77,29.52,11,4,11,0.02
2013-11-1,54.3,42.9,36.1,39.6,35.6,29.8,89,76,54,29.96,29.54,13,4,13,0.01
2013-11-2,55.4,40.2,29.1,36.9,31.5,25.2,87,72,48,30.17,29.96,11,2,11,0.00
2013-11-3,57.9,45.6,35.4,36.2,32.0,27.8,78,60,35,30.17,29.92,24,8,24,0.00
2013-11-4,51.1,42.4,27.3,41.1,34.1,22.3,85,73,58,30.24,29.88,21,6,21,0.11
2013-11-5,44.2,32.2,23.2,34.8,26.0,18.5,87,78,60,30.30,30.10,13,1,13,0.00
2013-11-6,40.1,30.8,25.3,28.5,23.6,18.6,87,75,57,30.25,30.11,10,2,10,0.34
2013-11-7,41.0,28.0,18.0,30.4,21.2,11.4,80,75,64,30.33,30.23,14,4,14,0.00
2013-11-8,45.5,35.6,20.8,37.0,26.7,15.4,79,70,53,30.27,29.69,18,5,18,0.00
2013-11-9,43.5,39.5,33.6,36.8,30.6,22.9,81,71,58,30.32,29.74,24,8,24,0.00
2013-11-10,39.6,34.8,27.0,29.4,25.8,18.9,78,69,64,30.41,30.17,15,4,15,0.00
2013-11-11,35.8,24.0,12.4,28.0,11.1,1.2,75,58,37,30.79,30.19,13,4,13,0.00
2013-11-12,32.9,18.2,5.9,10.6,4.6,-2.9,69,56,26,30.84,30.49,12,4,12,0.00
2013-11-13,56.7,35.4,19.6,34.9,22.2,9.1,71,59,42,30.49,29.96,21,8,21,0.00
2013-11-14,60.8,38.6,25.3,40.7,29.3,18.7,77,70,46,29.96,29.85,12,4,12,0.00
2013-11-15,60.1,40.8,24.8,39.6,31.0,18.3,83,69,46,29.92,29.70,16,4,16,0.00
2013-11-16,49.8,44.2,38.5,46.1,39.1,33.2,88,82,71,29.70,29.32,17,4,17,0.09
2013-11-17,46.9,38.1,30.6,37.3,31.6,22.5,85,77,65,29.95,29.41,21,7,21,0.00
2013-11-18,40.5,28.7,18.7,23.5,18.2,10.9,76,65,46,30.32,29.96,19,6,19,0.00
2013-11-19,51.3,36.8,19.2,31.2,24.2,11.4,76,61,44,30.31,29.95,27,9,27,0.00
2013-11-20,46.6,42.0,36.1,32.0,29.2,25.3,78,61,48,30.10,29.92,21,7,21,0.00
2013-11-21,37.2,27.5,21.4,30.0,18.5,9.5,79,69,58,30.59,30.09,13,5,13,0.00
2013-11-22,39.4,20.9,6.3,11.0,3.4,-6.0,70,49,20,30.70,30.52,17,6,17,0.00
2013-11-23,23.0,9.1,0.7,-1.0,-6.5,-11.4,62,50,28,30.90,30.70,12,3,12,0.00
2013-11-24,36.5,19.6,1.6,13.5,3.6,-8.3,63,50,33,30.75,30.06,27,10,27,0.00
2013-11-25,43.0,33.4,26.2,26.4,19.8,11.4,72,57,44,30.17,30.00,19,8,19,0.00
2013-11-26,29.1,19.5,7.7,16.9,2.0,-5.0,61,46,28,30.44,30.17,21,6,21,0.00
2013-11-27,28.0,14.2,0.5,9.3,-0.3,-10.3,66,52,31,30.45,30.11,14,3,14,0.00
2013-11-28,32.5,19.7,5.0,12.6,4.7,-4.7,63,52,33,30.56,30.11,12,2,12,0.00
2013-11-29,34.3,21.1,3.4,16.1,8.1,-5.9,68,57,43,30.56,30.17,19,5,23,0.00
2013-11-30,41.0,30.0,21.0,26.4,19.1,13.6,74,64,55,30.24,30.09,8,3,8,0.00
2013-12-1,38.8,24.3,13.3,24.6,15.2,5.4,75,68,51,30.25,29.98,4,1,4,0.00
2013-12-2,38.3,33.4,25.7,29.5,25.6,17.6,80,73,64,29.97,29.63,13,3,13,0.13
2013-12-3,33.8,32.0,28.8,29.0,27.2,23.7,84,82,80,29.84,29.65,8,1,8,0.05
2013-12-4,31.6,25.5,8.1,27.4,19.6,-1.2,84,78,64,29.85,29.58,8,0,8,0.00
2013-12-5,9.3,2.9,-9.4,-1.2,-8.8,-22.0,66,57,45,30.41,29.85,0,0,0,0.00
2013-12-6,5.4,-8.5,-19.3,-13.4,-22.7,-33.4,57,49,36,30.69,30.41,0,0,0,0.00
2013-12-7,4.5,-10.4,-20.4,-16.4,-25.7,-34.7,57,45,32,30.76,30.59,0,0,0,0.00
2013-12-8,15.3,6.4,-5.4,5.0,-3.5,-16.9,69,63,54,30.58,30.09,0,0,0,0.00
2013-12-9,6.6,-2.6,-9.0,-2.2,-16.1,-21.3,66,52,34,30.20,29.90,0,0,0,0.00
2013-12-10,15.1,7.4,-1.7,6.2,-4.9,-13.9,69,56,41,30.37,29.83,15,2,15,0.01
2013-12-11,3.7,-4.5,-14.1,-11.4,-20.4,-28.0,52,45,29,30.62,30.32,11,5,11,0.00
2013-12-12,23.7,9.8,0.0,7.7,-2.4,-13.1,66,57,44,30.35,30.17,11,2,11,0.00
2013-12-13,18.5,12.5,7.9,4.1,1.6,-2.0,68,61,51,30.32,30.16,16,5,16,0.00
2013-12-14,18.9,7.8,-1.8,1.8,-4.1,-15.8,64,57,42,30.32,30.17,13,4,13,0.00
2013-12-15,13.3,1.5,-2.4,-10.2,-15.3,-20.7,56,44,25,30.22,30.15,8,3,8,0.00
2013-12-16,25.0,11.5,1.8,16.9,1.4,-10.2,75,63,56,30.16,30.00,13,4,13,0.00
2013-12-17,31.8,21.1,0.1,23.6,10.1,-10.5,74,62,46,30.18,29.98,20,7,20,0.00
2013-12-18,41.4,24.0,0.7,26.1,13.3,-9.8,77,63,51,30.13,29.72,15,4,15,0.12
2013-12-19,25.9,16.2,12.7,16.5,5.4,1.1,71,62,50,30.13,29.88,17,4,17,0.00
2013-12-20,18.5,14.0,10.0,6.3,4.2,0.0,68,64,56,30.08,29.92,10,3,10,0.00
2013-12-21,26.8,16.5,12.9,10.1,6.1,3.8,68,63,46,30.06,29.91,8,3,8,0.00
2013-12-22,14.7,12.0,8.6,5.5,2.4,-1.7,67,64,57,30.13,30.01,11,4,11,0.00
2013-12-23,1.6,-8.5,-19.1,-19.7,-26.5,-34.5,46,40,31,30.57,30.49,14,4,14,0.00
2013-12-24,10.4,-2.5,-21.3,0.2,-17.6,-36.0,64,48,27,30.54,30.17,15,5,15,0.00
2013-12-25,30.9,17.4,7.0,21.7,7.5,-3.5,76,65,47,30.23,30.11,17,5,17,0.01
2013-12-26,32.0,20.2,6.8,19.5,10.7,-2.7,75,66,59,30.23,30.11,6,1,6,0.01
2013-12-27,42.1,29.0,7.5,28.9,20.3,-2.0,77,70,57,30.22,29.99,14,5,17,0.02
2013-12-28,46.8,30.1,16.0,30.4,21.2,7.0,78,70,52,30.11,29.72,17,5,17,0.01
2013-12-29,16.0,-4.1,-20.7,7.0,-21.3,-35.8,67,43,23,30.41,30.11,14,5,14,0.00
2013-12-30,5.9,-8.0,-20.2,-7.9,-21.2,-35.5,58,51,43,30.34,30.18,8,2,8,0.00
2013-12-31,3.7,-7.8,-19.7,-13.2,-22.1,-34.2,56,48,41,30.43,30.26,7,2,7,0.00
2014-1-1,3.0,-3.5,-9.0,-15.1,-19.8,-24.9,48,44,34,30.51,30.41,8,3,8,0.00
2014-1-2,7.9,-8.9,-21.6,-17.1,-28.5,-41.9,50,38,22,30.55,30.41,5,1,6,0.00